Time;durP1;ratioP1;P1;durP2;ratioP2;P2;SDS_P1;SDS_P2;PMS_P1;PMS_P2;Temp;Humidity;BMP_temperature;BMP_pressure;BME280_temperature;BME280_humidity;BME280_pressure;Samples;Min_cycle;Max_cycle;Signal;HPM_P1;HPM_P2
2023/09/18 00:02:11;;;;;;;10.30;9.40;;;;;;;;;;5074125;28;20539;-64
2023/09/18 00:04:38;;;;;;;10.20;9.40;;;;;;;;;;5074007;28;20538;-64
2023/09/18 00:07:05;;;;;;;10.00;9.20;;;;;;;;;;5074142;28;20534;-64
2023/09/18 00:09:32;;;;;;;10.70;9.80;;;;;;;;;;5074020;28;20475;-64
2023/09/18 00:11:59;;;;;;;10.47;9.67;;;;;;;;;;5074041;28;20544;-64
2023/09/18 00:14:26;;;;;;;10.77;9.97;;;;;;;;;;5073808;28;20599;-64
2023/09/18 00:16:53;;;;;;;11.10;10.10;;;;;;;;;;5073825;28;20521;-64
2023/09/18 00:19:21;;;;;;;10.40;9.63;;;;;;;;;;5073962;28;20542;-64
2023/09/18 00:21:49;;;;;;;10.53;9.63;;;;;;;;;;5073918;28;20942;-64
2023/09/18 00:24:17;;;;;;;10.60;9.80;;;;;;;;;;5074025;28;20450;-64
2023/09/18 00:26:45;;;;;;;9.37;8.63;;;;;;;;;;5073670;28;20447;-64
2023/09/18 00:29:12;;;;;;;10.50;9.60;;;;;;;;;;5073516;28;20483;-64
2023/09/18 00:31:39;;;;;;;9.93;9.23;;;;;;;;;;5073462;28;20450;-64
2023/09/18 00:34:06;;;;;;;10.73;9.90;;;;;;;;;;5073657;28;20534;-64
2023/09/18 00:36:34;;;;;;;10.00;9.20;;;;;;;;;;5073538;28;20526;-64
2023/09/18 00:39:01;;;;;;;10.73;9.73;;;;;;;;;;5073544;28;20443;-64
2023/09/18 00:41:28;;;;;;;11.27;10.37;;;;;;;;;;5073563;28;20537;-64
2023/09/18 00:43:55;;;;;;;11.20;10.30;;;;;;;;;;5073380;28;20798;-64
2023/09/18 00:46:22;;;;;;;10.23;9.30;;;;;;;;;;5073156;28;20446;-64
2023/09/18 00:48:50;;;;;;;9.90;9.10;;;;;;;;;;5073361;28;20839;-64
2023/09/18 00:51:18;;;;;;;10.90;10.00;;;;;;;;;;5073434;28;20815;-64
2023/09/18 00:53:48;;;;;;;10.30;9.30;;;;;;;;;;5073353;28;20556;-64
2023/09/18 00:56:15;;;;;;;11.50;10.60;;;;;;;;;;5073243;28;20535;-64
2023/09/18 00:58:42;;;;;;;10.83;9.70;;;;;;;;;;5073118;28;20454;-64
2023/09/18 01:01:09;;;;;;;10.30;9.60;;;;;;;;;;5073017;28;20550;-64
2023/09/18 01:03:36;;;;;;;10.00;9.30;;;;;;;;;;5073211;28;20444;-64
2023/09/18 01:06:04;;;;;;;10.50;9.60;;;;;;;;;;5073145;28;20440;-64
2023/09/18 01:08:31;;;;;;;9.67;8.97;;;;;;;;;;5072877;28;20510;-64
2023/09/18 01:11:02;;;;;;;10.00;9.20;;;;;;;;;;5073084;28;20448;-64
2023/09/18 01:13:32;;;;;;;10.50;9.70;;;;;;;;;;5072989;28;20458;-64
2023/09/18 01:16:02;;;;;;;9.23;8.43;;;;;;;;;;5073051;28;20446;-64
2023/09/18 01:18:29;;;;;;;9.73;8.93;;;;;;;;;;5073147;28;20977;-64
2023/09/18 01:20:56;;;;;;;10.40;9.40;;;;;;;;;;5073057;28;20448;-64
2023/09/18 01:23:24;;;;;;;10.87;9.97;;;;;;;;;;5072855;28;20905;-64
2023/09/18 01:25:51;;;;;;;9.83;9.00;;;;;;;;;;5072821;28;20486;-64
2023/09/18 01:28:18;;;;;;;9.90;9.17;;;;;;;;;;5072894;28;20561;-64
2023/09/18 01:30:45;;;;;;;10.57;9.87;;;;;;;;;;5072701;28;20450;-64
2023/09/18 01:33:12;;;;;;;10.00;9.20;;;;;;;;;;5072926;28;20501;-64
2023/09/18 01:35:40;;;;;;;9.27;8.47;;;;;;;;;;5072743;28;20947;-64
2023/09/18 01:38:10;;;;;;;9.37;8.47;;;;;;;;;;5072704;28;20453;-64
2023/09/18 01:40:39;;;;;;;9.77;9.07;;;;;;;;;;5072911;28;20796;-64
2023/09/18 01:43:06;;;;;;;9.60;8.90;;;;;;;;;;5072913;28;20538;-64
2023/09/18 01:45:33;;;;;;;9.33;8.63;;;;;;;;;;5072776;28;20530;-64
2023/09/18 01:48:00;;;;;;;9.97;9.17;;;;;;;;;;5072606;28;20539;-64
2023/09/18 01:50:27;;;;;;;9.27;8.57;;;;;;;;;;5072586;28;20475;-64
2023/09/18 01:52:54;;;;;;;9.77;9.00;;;;;;;;;;5073074;28;20453;-64
2023/09/18 01:55:21;;;;;;;10.37;9.57;;;;;;;;;;5072773;28;20772;-64
2023/09/18 01:57:49;;;;;;;9.40;8.70;;;;;;;;;;5072735;28;20877;-64
2023/09/18 02:00:18;;;;;;;10.03;9.03;;;;;;;;;;5072686;28;20470;-64
2023/09/18 02:02:45;;;;;;;9.80;9.00;;;;;;;;;;5072547;28;20446;-64
2023/09/18 02:05:12;;;;;;;8.93;8.33;;;;;;;;;;5072534;28;20447;-64
2023/09/18 02:07:38;;;;;;;9.30;8.53;;;;;;;;;;5072386;28;20450;-64
2023/09/18 02:10:06;;;;;;;8.87;8.07;;;;;;;;;;5072513;28;20927;-64
2023/09/18 02:12:33;;;;;;;9.33;8.67;;;;;;;;;;5072417;28;20447;-64
2023/09/18 02:15:06;;;;;;;8.97;8.10;;;;;;;;;;5072420;28;20538;-64
2023/09/18 02:17:33;;;;;;;8.43;7.73;;;;;;;;;;5072470;28;20803;-64
2023/09/18 02:20:00;;;;;;;8.87;8.27;;;;;;;;;;5072290;28;20539;-64
2023/09/18 02:22:27;;;;;;;8.73;8.10;;;;;;;;;;5075961;28;20439;-64
2023/09/18 02:24:54;;;;;;;10.90;10.00;;;;;;;;;;5076015;28;20527;-64
2023/09/18 02:27:21;;;;;;;9.63;8.80;;;;;;;;;;5075952;28;20446;-64
2023/09/18 02:29:49;;;;;;;8.53;7.77;;;;;;;;;;5075782;28;20917;-64
2023/09/18 02:32:19;;;;;;;9.00;8.30;;;;;;;;;;5076046;28;20448;-64
2023/09/18 02:34:46;;;;;;;8.80;8.10;;;;;;;;;;5075668;28;20439;-64
2023/09/18 02:37:12;;;;;;;8.63;8.00;;;;;;;;;;5075615;28;20539;-64
2023/09/18 02:39:39;;;;;;;9.63;8.93;;;;;;;;;;5075767;28;20450;-64
2023/09/18 02:42:06;;;;;;;9.00;8.20;;;;;;;;;;5075705;28;20837;-64
2023/09/18 02:44:33;;;;;;;8.10;7.50;;;;;;;;;;5075906;28;20450;-64
2023/09/18 02:47:00;;;;;;;8.57;7.97;;;;;;;;;;5075498;28;20439;-64
2023/09/18 02:49:29;;;;;;;8.80;8.17;;;;;;;;;;5075695;28;20483;-64
2023/09/18 02:51:56;;;;;;;9.90;8.97;;;;;;;;;;5075630;28;20440;-64
2023/09/18 02:54:23;;;;;;;9.70;8.80;;;;;;;;;;5075500;28;20772;-64
2023/09/18 02:56:50;;;;;;;8.47;7.70;;;;;;;;;;5075387;28;20443;-64
2023/09/18 02:59:17;;;;;;;8.80;8.00;;;;;;;;;;5075128;28;20454;-64
2023/09/18 03:01:44;;;;;;;9.13;8.47;;;;;;;;;;5075220;28;20522;-64
2023/09/18 03:04:11;;;;;;;8.97;8.37;;;;;;;;;;5075413;28;21006;-64
2023/09/18 03:06:41;;;;;;;9.00;8.30;;;;;;;;;;5075369;28;20539;-64
2023/09/18 03:09:08;;;;;;;8.70;8.00;;;;;;;;;;5075129;28;20471;-64
2023/09/18 03:11:34;;;;;;;9.27;8.57;;;;;;;;;;5075126;28;20444;-64
2023/09/18 03:14:01;;;;;;;8.70;7.90;;;;;;;;;;5074957;28;20447;-64
2023/09/18 03:16:31;;;;;;;8.03;7.10;;;;;;;;;;5075185;28;20538;-64
2023/09/18 03:18:58;;;;;;;7.63;7.00;;;;;;;;;;5075070;28;20452;-64
2023/09/18 03:21:25;;;;;;;9.67;8.93;;;;;;;;;;5074965;28;20526;-64
2023/09/18 03:23:53;;;;;;;9.10;8.20;;;;;;;;;;5074950;28;20439;-64
2023/09/18 03:26:20;;;;;;;7.47;6.87;;;;;;;;;;5074827;28;20442;-64
2023/09/18 03:28:47;;;;;;;8.23;7.60;;;;;;;;;;5074536;28;20478;-64
2023/09/18 03:31:14;;;;;;;7.97;7.37;;;;;;;;;;5074664;28;20450;-64
2023/09/18 03:33:41;;;;;;;8.30;7.63;;;;;;;;;;5073539;28;20558;-64
2023/09/18 03:36:11;;;;;;;9.57;8.77;;;;;;;;;;5074830;28;20451;-64
2023/09/18 03:38:38;;;;;;;8.97;8.17;;;;;;;;;;5074680;28;20459;-64
2023/09/18 03:41:06;;;;;;;9.80;8.90;;;;;;;;;;5074468;28;20505;-64
2023/09/18 03:43:33;;;;;;;8.83;8.13;;;;;;;;;;5074607;28;20542;-64
2023/09/18 03:46:04;;;;;;;8.30;7.57;;;;;;;;;;5074540;28;20538;-64
2023/09/18 03:48:36;;;;;;;8.10;7.40;;;;;;;;;;5074409;28;20530;-64
2023/09/18 03:51:03;;;;;;;9.10;8.40;;;;;;;;;;5074446;28;20439;-64
2023/09/18 03:53:30;;;;;;;9.20;8.47;;;;;;;;;;5074223;28;20534;-64
2023/09/18 03:55:56;;;;;;;9.10;8.30;;;;;;;;;;5074123;28;20448;-64
2023/09/18 03:58:25;;;;;;;9.13;8.27;;;;;;;;;;5074320;28;20534;-64
2023/09/18 04:00:52;;;;;;;9.43;8.63;;;;;;;;;;5073991;28;20467;-64
2023/09/18 04:03:19;;;;;;;8.50;7.90;;;;;;;;;;5074216;28;20450;-64
2023/09/18 04:05:46;;;;;;;9.70;8.87;;;;;;;;;;5074022;28;20538;-64
2023/09/18 04:08:13;;;;;;;9.57;8.57;;;;;;;;;;5073843;28;20450;-64
2023/09/18 04:10:40;;;;;;;8.93;8.10;;;;;;;;;;5074291;28;20566;-64
2023/09/18 04:13:08;;;;;;;11.47;8.53;;;;;;;;;;5073988;28;20547;-64
2023/09/18 04:15:37;;;;;;;9.03;8.07;;;;;;;;;;5074127;28;20458;-64
2023/09/18 04:18:05;;;;;;;9.23;8.53;;;;;;;;;;5073789;28;20455;-64
2023/09/18 04:20:32;;;;;;;10.87;7.97;;;;;;;;;;5073915;28;20815;-64
2023/09/18 04:23:17;;;;;;;7.90;7.30;;;;;;;;;;5073818;28;20943;-64
2023/09/18 04:25:45;;;;;;;8.60;7.90;;;;;;;;;;5073823;28;20443;-64
2023/09/18 04:28:12;;;;;;;8.20;7.60;;;;;;;;;;5073630;28;20466;-64
2023/09/18 04:30:40;;;;;;;9.97;9.17;;;;;;;;;;5073683;28;20489;-64
2023/09/18 04:33:07;;;;;;;9.47;8.57;;;;;;;;;;5073482;28;20451;-64
2023/09/18 04:35:34;;;;;;;8.90;7.87;;;;;;;;;;5073462;28;20554;-64
2023/09/18 04:38:01;;;;;;;9.23;8.43;;;;;;;;;;5073583;28;20602;-64
2023/09/18 04:40:31;;;;;;;9.90;9.00;;;;;;;;;;5073359;28;20539;-64
2023/09/18 04:42:59;;;;;;;9.40;8.63;;;;;;;;;;5073158;28;20485;-64
2023/09/18 04:45:26;;;;;;;10.60;8.83;;;;;;;;;;5072921;28;20481;-64
2023/09/18 04:47:54;;;;;;;9.23;8.43;;;;;;;;;;5073127;28;20444;-64
2023/09/18 04:50:21;;;;;;;12.40;9.40;;;;;;;;;;5073303;28;20484;-64
2023/09/18 04:52:50;;;;;;;8.37;7.73;;;;;;;;;;5073221;28;20542;-64
2023/09/18 04:55:17;;;;;;;9.83;8.83;;;;;;;;;;5073189;28;20453;-64
2023/09/18 04:57:44;;;;;;;10.40;9.30;;;;;;;;;;5073161;28;20884;-64
2023/09/18 05:00:13;;;;;;;10.00;9.30;;;;;;;;;;5072912;28;20482;-64
2023/09/18 05:02:40;;;;;;;8.80;8.00;;;;;;;;;;5073282;28;20853;-64
2023/09/18 05:05:09;;;;;;;10.80;9.57;;;;;;;;;;5073131;28;20440;-64
2023/09/18 05:07:36;;;;;;;9.73;8.83;;;;;;;;;;5073105;28;20493;-64
2023/09/18 05:10:05;;;;;;;10.47;9.40;;;;;;;;;;5073113;28;21036;-64
2023/09/18 05:12:32;;;;;;;10.20;9.30;;;;;;;;;;5072901;28;20474;-64
2023/09/18 05:14:59;;;;;;;11.27;9.10;;;;;;;;;;5072788;28;20539;-64
2023/09/18 05:17:42;;;;;;;8.03;7.37;;;;;;;;;;5073067;28;20471;-64
2023/09/18 05:20:13;;;;;;;8.50;7.90;;;;;;;;;;5072930;28;20447;-64
2023/09/18 05:22:40;;;;;;;7.17;6.67;;;;;;;;;;5073108;28;20622;-64
2023/09/18 05:25:07;;;;;;;8.17;7.57;;;;;;;;;;5072662;28;20445;-64
2023/09/18 05:27:34;;;;;;;8.67;7.77;;;;;;;;;;5072598;28;20439;-64
2023/09/18 05:30:01;;;;;;;8.20;7.50;;;;;;;;;;5073137;28;20489;-64
2023/09/18 05:32:28;;;;;;;8.63;7.73;;;;;;;;;;5072690;28;20486;-64
2023/09/18 05:34:55;;;;;;;8.10;7.50;;;;;;;;;;5072835;28;20534;-64
2023/09/18 05:37:23;;;;;;;8.53;7.83;;;;;;;;;;5072725;28;20538;-64
2023/09/18 05:39:50;;;;;;;7.97;7.27;;;;;;;;;;5072545;28;20537;-64
2023/09/18 05:42:17;;;;;;;8.53;7.73;;;;;;;;;;5072764;28;20453;-64
2023/09/18 05:44:44;;;;;;;8.23;7.60;;;;;;;;;;5072927;28;20448;-64
2023/09/18 05:47:12;;;;;;;7.93;7.23;;;;;;;;;;5072588;28;20872;-64
2023/09/18 05:49:39;;;;;;;7.70;7.10;;;;;;;;;;5072558;28;20811;-64
2023/09/18 05:52:06;;;;;;;8.43;7.60;;;;;;;;;;5072523;28;20486;-64
2023/09/18 05:54:36;;;;;;;7.33;6.73;;;;;;;;;;5072437;28;20534;-64
2023/09/18 05:57:03;;;;;;;7.03;6.43;;;;;;;;;;5075871;28;20481;-64
2023/09/18 05:59:30;;;;;;;7.33;6.83;;;;;;;;;;5076281;28;20891;-64
2023/09/18 06:01:57;;;;;;;10.70;8.50;;;;;;;;;;5076367;28;20485;-64
2023/09/18 06:04:24;;;;;;;7.40;6.80;;;;;;;;;;5076212;28;20439;-64
2023/09/18 06:06:51;;;;;;;7.90;7.20;;;;;;;;;;5076168;28;20534;-64
2023/09/18 06:09:18;;;;;;;6.20;5.70;;;;;;;;;;5076010;28;20451;-64
2023/09/18 06:11:47;;;;;;;7.50;6.67;;;;;;;;;;5076282;28;20451;-64
2023/09/18 06:14:14;;;;;;;11.50;7.20;;;;;;;;;;5075997;28;20490;-64
2023/09/18 06:16:41;;;;;;;8.30;6.30;;;;;;;;;;5076002;28;20443;-64
2023/09/18 06:19:08;;;;;;;6.33;5.80;;;;;;;;;;5075896;28;20539;-64
2023/09/18 06:21:34;;;;;;;7.10;6.40;;;;;;;;;;5075824;28;20534;-64
2023/09/18 06:24:01;;;;;;;7.53;7.03;;;;;;;;;;5075785;28;20990;-64
2023/09/18 06:26:28;;;;;;;7.40;6.77;;;;;;;;;;5075910;28;20555;-64
2023/09/18 06:28:56;;;;;;;6.30;5.80;;;;;;;;;;5075655;28;20463;-64
2023/09/18 06:31:24;;;;;;;8.30;6.33;;;;;;;;;;5075192;28;20838;-64
2023/09/18 06:33:51;;;;;;;6.43;5.93;;;;;;;;;;5075241;28;20807;-64
2023/09/18 06:36:18;;;;;;;9.63;6.57;;;;;;;;;;5075109;28;20527;-64
2023/09/18 06:38:45;;;;;;;6.90;6.30;;;;;;;;;;5075228;28;20439;-73
2023/09/18 06:41:12;;;;;;;8.80;8.00;;;;;;;;;;5075303;28;20450;-73
2023/09/18 06:43:39;;;;;;;6.63;5.93;;;;;;;;;;5075120;28;20535;-74
2023/09/18 06:46:08;;;;;;;6.97;6.40;;;;;;;;;;5075154;28;20440;-73
2023/09/18 06:48:35;;;;;;;6.40;5.80;;;;;;;;;;5074822;28;21006;-74
2023/09/18 06:51:02;;;;;;;6.60;6.10;;;;;;;;;;5074369;28;20558;-72
2023/09/18 06:53:29;;;;;;;6.60;6.20;;;;;;;;;;5072392;28;20470;-74
2023/09/18 06:55:56;;;;;;;7.40;6.57;;;;;;;;;;5075609;28;20439;-72
2023/09/18 06:58:23;;;;;;;6.70;6.10;;;;;;;;;;5075349;28;20474;-66
2023/09/18 07:00:51;;;;;;;6.20;5.77;;;;;;;;;;5075269;28;20477;-63
2023/09/18 07:03:19;;;;;;;6.43;5.93;;;;;;;;;;5075000;28;20447;-75
2023/09/18 07:05:46;;;;;;;6.20;5.80;;;;;;;;;;5074932;28;20530;-78
2023/09/18 07:08:15;;;;;;;6.33;5.90;;;;;;;;;;5074893;28;20491;-67
2023/09/18 07:10:42;;;;;;;6.47;6.00;;;;;;;;;;5074787;28;20547;-63
2023/09/18 07:13:09;;;;;;;6.30;5.80;;;;;;;;;;5074993;28;20439;-67
2023/09/18 07:15:36;;;;;;;6.10;5.70;;;;;;;;;;5075243;28;20826;-66
2023/09/18 07:18:03;;;;;;;6.80;6.10;;;;;;;;;;5074869;28;20486;-77
2023/09/18 07:20:32;;;;;;;5.87;5.57;;;;;;;;;;5074998;28;20439;-74
2023/09/18 07:22:59;;;;;;;5.87;5.27;;;;;;;;;;5074868;28;20852;-72
2023/09/18 07:25:26;;;;;;;7.03;5.20;;;;;;;;;;5074787;28;20794;-71
2023/09/18 07:27:53;;;;;;;5.40;5.00;;;;;;;;;;5074656;28;20476;-74
2023/09/18 07:30:21;;;;;;;5.60;5.20;;;;;;;;;;5074500;28;20845;-68
2023/09/18 07:32:48;;;;;;;5.73;5.30;;;;;;;;;;5074805;28;20847;-66
2023/09/18 07:35:15;;;;;;;5.90;5.40;;;;;;;;;;5074737;28;20543;-70
2023/09/18 07:37:46;;;;;;;5.53;5.03;;;;;;;;;;5074626;28;20784;-71
2023/09/18 07:40:13;;;;;;;5.43;5.00;;;;;;;;;;5074607;28;20448;-81
2023/09/18 07:42:40;;;;;;;6.37;5.10;;;;;;;;;;5074480;28;21096;-67
2023/09/18 07:45:08;;;;;;;5.43;5.13;;;;;;;;;;5074202;28;20530;-70
2023/09/18 07:47:34;;;;;;;5.90;5.50;;;;;;;;;;5074462;28;20522;-75
2023/09/18 07:50:01;;;;;;;5.40;5.00;;;;;;;;;;5074524;28;20558;-67
2023/09/18 07:52:29;;;;;;;5.37;4.93;;;;;;;;;;5074260;28;20452;-68
2023/09/18 07:54:57;;;;;;;7.13;4.53;;;;;;;;;;5074189;28;20447;-73
2023/09/18 07:57:24;;;;;;;5.07;4.67;;;;;;;;;;5074046;28;20469;-71
2023/09/18 07:59:51;;;;;;;5.10;4.70;;;;;;;;;;5073962;28;20507;-74
2023/09/18 08:02:18;;;;;;;5.13;4.80;;;;;;;;;;5073867;28;20456;-71
2023/09/18 08:04:45;;;;;;;4.87;4.43;;;;;;;;;;5073865;28;20877;-73
2023/09/18 08:07:12;;;;;;;10.00;4.90;;;;;;;;;;5073934;28;20827;-72
2023/09/18 08:09:39;;;;;;;5.43;4.90;;;;;;;;;;5073727;28;20538;-68
2023/09/18 08:12:09;;;;;;;4.90;4.63;;;;;;;;;;5073797;28;20495;-68
2023/09/18 08:14:36;;;;;;;4.67;4.43;;;;;;;;;;5074009;28;20451;-74
2023/09/18 08:17:04;;;;;;;6.07;5.53;;;;;;;;;;5074059;28;20466;-75
2023/09/18 08:19:31;;;;;;;5.70;5.20;;;;;;;;;;5073304;28;20447;-71
2023/09/18 08:21:59;;;;;;;5.60;5.10;;;;;;;;;;5073617;28;21037;-82
2023/09/18 08:24:26;;;;;;;4.50;4.30;;;;;;;;;;5073568;28;20521;-71
2023/09/18 08:26:54;;;;;;;4.47;4.00;;;;;;;;;;5073746;28;20479;-73
2023/09/18 08:29:22;;;;;;;5.00;4.70;;;;;;;;;;5073532;28;20949;-72
2023/09/18 08:31:50;;;;;;;4.30;4.10;;;;;;;;;;5073598;28;20479;-82
2023/09/18 08:34:17;;;;;;;5.13;4.73;;;;;;;;;;5073388;28;20483;-73
2023/09/18 08:36:44;;;;;;;5.97;4.87;;;;;;;;;;5073347;28;20449;-72
2023/09/18 08:39:12;;;;;;;5.60;4.90;;;;;;;;;;5073148;28;21002;-79
2023/09/18 08:41:40;;;;;;;5.27;4.97;;;;;;;;;;5073398;28;20508;-70
2023/09/18 08:44:09;;;;;;;4.80;4.50;;;;;;;;;;5073333;28;20522;-72
2023/09/18 08:46:38;;;;;;;8.90;4.80;;;;;;;;;;5073294;28;20509;-78
2023/09/18 08:49:05;;;;;;;4.77;4.47;;;;;;;;;;5073214;28;20872;-71
2023/09/18 08:51:33;;;;;;;4.00;3.80;;;;;;;;;;5072880;28;20486;-61
2023/09/18 08:54:00;;;;;;;5.37;4.30;;;;;;;;;;5073374;28;20452;-61
2023/09/18 08:56:29;;;;;;;4.43;4.13;;;;;;;;;;5072909;28;20451;-62
2023/09/18 08:58:56;;;;;;;4.87;4.30;;;;;;;;;;5073206;28;20447;-61
2023/09/18 09:01:23;;;;;;;4.63;4.23;;;;;;;;;;5073112;28;20502;-63
2023/09/18 09:03:51;;;;;;;4.70;4.40;;;;;;;;;;5073034;28;20834;-63
2023/09/18 09:06:18;;;;;;;3.97;3.67;;;;;;;;;;5072937;28;20453;-63
2023/09/18 09:08:45;;;;;;;4.67;4.27;;;;;;;;;;5073183;28;20850;-63
2023/09/18 09:11:12;;;;;;;6.20;4.30;;;;;;;;;;5073052;28;20577;-62
2023/09/18 09:13:39;;;;;;;3.70;3.50;;;;;;;;;;5072998;28;20469;-69
2023/09/18 09:16:06;;;;;;;4.27;3.97;;;;;;;;;;5073060;28;20454;-70
2023/09/18 09:18:33;;;;;;;4.23;4.03;;;;;;;;;;5072863;28;20534;-70
2023/09/18 09:21:04;;;;;;;4.07;3.83;;;;;;;;;;5072777;28;20458;-65
2023/09/18 09:23:46;;;;;;;3.97;3.77;;;;;;;;;;5073049;28;20542;-65
2023/09/18 09:26:14;;;;;;;4.43;4.03;;;;;;;;;;5072839;28;20474;-66
2023/09/18 09:28:43;;;;;;;5.37;4.83;;;;;;;;;;5072790;28;20530;-66
2023/09/18 09:31:10;;;;;;;4.27;3.87;;;;;;;;;;5076190;28;20984;-66
2023/09/18 09:33:38;;;;;;;4.00;3.80;;;;;;;;;;5076865;28;20446;-67
2023/09/18 09:36:07;;;;;;;4.07;3.70;;;;;;;;;;5077082;28;20810;-70
2023/09/18 09:38:35;;;;;;;4.10;3.90;;;;;;;;;;5076905;28;20443;-63
2023/09/18 09:41:02;;;;;;;3.57;3.27;;;;;;;;;;5069419;28;21010;-61
2023/09/18 09:43:29;;;;;;;4.20;3.83;;;;;;;;;;5061519;28;20446;-65
2023/09/18 09:45:59;;;;;;;9.13;4.30;;;;;;;;;;5074140;28;20522;-65
2023/09/18 09:48:26;;;;;;;3.10;2.90;;;;;;;;;;5073365;28;20720;-67
2023/09/18 09:50:55;;;;;;;4.30;4.10;;;;;;;;;;5056534;28;20882;-67
2023/09/18 09:53:42;;;;;;;3.83;3.60;;;;;;;;;;5056434;28;20452;-63
2023/09/18 09:56:09;;;;;;;4.60;4.30;;;;;;;;;;5056305;28;20448;-67
2023/09/18 09:58:37;;;;;;;4.50;4.10;;;;;;;;;;5072953;28;20900;-67
2023/09/18 10:01:08;;;;;;;3.90;3.70;;;;;;;;;;5076103;28;20849;-63
2023/09/18 10:03:35;;;;;;;4.80;4.00;;;;;;;;;;5076415;28;20854;-71
2023/09/18 10:06:03;;;;;;;4.20;4.00;;;;;;;;;;5076571;28;20542;-66
2023/09/18 10:08:32;;;;;;;3.63;3.43;;;;;;;;;;5076158;28;20538;-65
2023/09/18 10:11:03;;;;;;;3.30;3.10;;;;;;;;;;5076048;28;20846;-71
2023/09/18 10:13:33;;;;;;;3.50;3.30;;;;;;;;;;5076299;28;20867;-69
2023/09/18 10:16:06;;;;;;;4.23;3.93;;;;;;;;;;5056428;28;20808;-62
2023/09/18 10:18:38;;;;;;;3.87;3.67;;;;;;;;;;5055996;28;20449;-66
2023/09/18 10:21:11;;;;;;;3.90;3.60;;;;;;;;;;5055921;28;20484;-68
2023/09/18 10:23:47;;;;;;;3.60;3.33;;;;;;;;;;5056127;28;20444;-61
2023/09/18 10:26:16;;;;;;;5.00;4.60;;;;;;;;;;5055777;28;20835;-63
2023/09/18 10:28:45;;;;;;;4.00;3.80;;;;;;;;;;5055298;28;20444;-66
2023/09/18 10:31:13;;;;;;;3.90;3.60;;;;;;;;;;5056428;28;20472;-62
2023/09/18 10:33:40;;;;;;;4.07;3.70;;;;;;;;;;5055146;28;21096;-64
2023/09/18 10:36:08;;;;;;;5.00;4.30;;;;;;;;;;5055105;28;20518;-65
2023/09/18 10:38:36;;;;;;;4.73;4.43;;;;;;;;;;5054577;28;20449;-64
2023/09/18 10:41:04;;;;;;;3.87;3.67;;;;;;;;;;5053705;28;20453;-64
2023/09/18 10:43:31;;;;;;;3.90;3.70;;;;;;;;;;5053936;28;20464;-65
2023/09/18 10:45:59;;;;;;;4.03;3.83;;;;;;;;;;5055635;28;20971;-64
2023/09/18 10:48:26;;;;;;;9.13;8.33;;;;;;;;;;5055438;28;20876;-61
2023/09/18 10:50:53;;;;;;;4.03;3.83;;;;;;;;;;5055534;28;20618;-61
2023/09/18 10:53:22;;;;;;;4.20;4.00;;;;;;;;;;5055363;28;20531;-61
2023/09/18 10:55:51;;;;;;;4.20;3.90;;;;;;;;;;5055289;28;20507;-61
2023/09/18 10:58:26;;;;;;;3.90;3.50;;;;;;;;;;5055305;28;21042;-61
2023/09/18 11:00:53;;;;;;;7.27;4.50;;;;;;;;;;5055208;28;20512;-61
2023/09/18 11:03:20;;;;;;;6.80;4.13;;;;;;;;;;5055983;28;20441;-60
2023/09/18 11:05:50;;;;;;;3.90;3.57;;;;;;;;;;5074352;28;20443;-60
2023/09/18 11:08:27;;;;;;;3.70;3.40;;;;;;;;;;5075082;28;20996;-60
2023/09/18 11:11:04;;;;;;;7.10;3.53;;;;;;;;;;5075044;28;20443;-61
2023/09/18 11:13:33;;;;;;;4.30;4.10;;;;;;;;;;5074964;28;20443;-61
2023/09/18 11:16:03;;;;;;;4.00;3.70;;;;;;;;;;5074941;28;20444;-61
2023/09/18 11:18:34;;;;;;;3.97;3.77;;;;;;;;;;5074886;28;20478;-65
2023/09/18 11:21:08;;;;;;;4.00;3.70;;;;;;;;;;5074617;28;20470;-65
2023/09/18 11:23:36;;;;;;;5.20;4.67;;;;;;;;;;5072781;28;20448;-63
2023/09/18 11:26:06;;;;;;;3.73;3.37;;;;;;;;;;5072678;28;20462;-64
2023/09/18 11:28:34;;;;;;;3.67;3.47;;;;;;;;;;5072127;28;20479;-62
2023/09/18 11:31:02;;;;;;;4.50;4.10;;;;;;;;;;5074706;28;20533;-63
2023/09/18 11:33:37;;;;;;;4.20;3.80;;;;;;;;;;5073588;28;20440;-64
2023/09/18 11:36:06;;;;;;;4.13;3.83;;;;;;;;;;5074504;28;20443;-61
2023/09/18 11:38:35;;;;;;;3.90;3.70;;;;;;;;;;5074466;28;20459;-63
2023/09/18 11:41:03;;;;;;;3.60;3.30;;;;;;;;;;5074550;28;20443;-63
2023/09/18 11:43:30;;;;;;;4.10;3.90;;;;;;;;;;5074309;28;20482;-62
2023/09/18 11:45:59;;;;;;;4.37;3.97;;;;;;;;;;5074548;28;20939;-62
2023/09/18 11:48:29;;;;;;;4.90;4.50;;;;;;;;;;5073163;28;20497;-62
2023/09/18 11:50:57;;;;;;;4.30;3.87;;;;;;;;;;5073011;28;20462;-62
2023/09/18 11:53:25;;;;;;;5.73;4.20;;;;;;;;;;5072529;28;20509;-62
2023/09/18 11:55:52;;;;;;;4.63;4.33;;;;;;;;;;5072430;28;20586;-62
2023/09/18 11:58:23;;;;;;;4.80;4.20;;;;;;;;;;5072326;28;20474;-62
2023/09/18 12:00:50;;;;;;;5.07;4.60;;;;;;;;;;5072074;28;20471;-62
2023/09/18 12:03:24;;;;;;;3.83;3.50;;;;;;;;;;5072315;28;20443;-62
2023/09/18 12:05:52;;;;;;;4.17;3.97;;;;;;;;;;5072629;28;20533;-62
2023/09/18 12:08:19;;;;;;;4.03;3.73;;;;;;;;;;5072994;28;20443;-62
2023/09/18 12:10:49;;;;;;;4.47;4.17;;;;;;;;;;5073968;28;20447;-62
2023/09/18 12:13:16;;;;;;;3.83;3.53;;;;;;;;;;5073868;28;20485;-62
2023/09/18 12:15:43;;;;;;;4.17;3.87;;;;;;;;;;5073782;28;20530;-62
2023/09/18 12:18:11;;;;;;;4.70;4.30;;;;;;;;;;5073711;28;20475;-62
2023/09/18 12:20:41;;;;;;;4.70;4.30;;;;;;;;;;5073774;28;20443;-62
2023/09/18 12:23:09;;;;;;;4.17;3.97;;;;;;;;;;5073864;28;20450;-62
2023/09/18 12:25:35;;;;;;;4.93;4.53;;;;;;;;;;5073532;28;20539;-62
2023/09/18 12:28:03;;;;;;;3.93;3.53;;;;;;;;;;5073467;28;20446;-62
2023/09/18 12:30:31;;;;;;;4.20;3.80;;;;;;;;;;5073116;28;20517;-62
2023/09/18 12:33:00;;;;;;;4.47;4.07;;;;;;;;;;5073050;28;20483;-62
2023/09/18 12:35:29;;;;;;;3.70;3.50;;;;;;;;;;5073848;28;20451;-62
2023/09/18 12:37:57;;;;;;;5.57;4.63;;;;;;;;;;5073459;28;20455;-62
2023/09/18 12:40:25;;;;;;;3.80;3.50;;;;;;;;;;5073417;28;20534;-62
2023/09/18 12:42:53;;;;;;;4.60;4.10;;;;;;;;;;5073242;28;20549;-62
2023/09/18 12:45:20;;;;;;;4.27;4.07;;;;;;;;;;5073415;28;20807;-62
2023/09/18 12:47:47;;;;;;;4.90;4.17;;;;;;;;;;5073102;28;20482;-62
2023/09/18 12:50:14;;;;;;;4.53;4.07;;;;;;;;;;5073540;28;20444;-62
2023/09/18 12:52:41;;;;;;;8.10;3.90;;;;;;;;;;5073141;28;20479;-62
2023/09/18 12:55:11;;;;;;;8.80;4.17;;;;;;;;;;5073090;28;20479;-62
2023/09/18 12:57:41;;;;;;;4.07;3.83;;;;;;;;;;5072965;28;20882;-62
2023/09/18 13:00:12;;;;;;;4.23;3.93;;;;;;;;;;5072887;28;20558;-62
2023/09/18 13:02:40;;;;;;;4.80;3.80;;;;;;;;;;5072982;28;20440;-62
2023/09/18 13:05:08;;;;;;;3.73;3.43;;;;;;;;;;5072692;28;20439;-62
2023/09/18 13:07:44;;;;;;;5.40;4.33;;;;;;;;;;5072977;28;20480;-62
2023/09/18 13:10:14;;;;;;;3.87;3.60;;;;;;;;;;5073013;28;20488;-62
2023/09/18 13:12:42;;;;;;;5.00;4.20;;;;;;;;;;5072919;28;20487;-62
2023/09/18 13:15:11;;;;;;;4.20;3.90;;;;;;;;;;5072995;28;20443;-62
2023/09/18 13:17:39;;;;;;;4.20;4.00;;;;;;;;;;5072884;28;20534;-62
2023/09/18 13:20:09;;;;;;;6.70;4.33;;;;;;;;;;5072886;28;20454;-62
2023/09/18 13:22:36;;;;;;;4.53;4.23;;;;;;;;;;5072883;28;20451;-62
2023/09/18 13:25:03;;;;;;;4.40;4.00;;;;;;;;;;5072971;28;20439;-62
2023/09/18 13:27:31;;;;;;;4.00;3.70;;;;;;;;;;5072577;28;20927;-63
2023/09/18 13:30:06;;;;;;;5.23;4.33;;;;;;;;;;5072646;28;20462;-63
2023/09/18 13:32:33;;;;;;;4.03;3.73;;;;;;;;;;5072624;28;20478;-62
2023/09/18 13:35:00;;;;;;;3.90;3.70;;;;;;;;;;5072483;28;20452;-62
2023/09/18 13:37:29;;;;;;;3.77;3.57;;;;;;;;;;5072851;28;20543;-62
2023/09/18 13:39:55;;;;;;;5.03;4.73;;;;;;;;;;5072581;28;20956;-62
2023/09/18 13:42:23;;;;;;;4.77;4.37;;;;;;;;;;5072638;28;20443;-62
2023/09/18 13:44:52;;;;;;;3.97;3.77;;;;;;;;;;5072608;28;20443;-62
2023/09/18 13:47:18;;;;;;;3.93;3.73;;;;;;;;;;5072751;28;20450;-62
2023/09/18 13:49:46;;;;;;;4.87;3.93;;;;;;;;;;5072505;28;20451;-62
2023/09/18 13:52:13;;;;;;;4.10;3.90;;;;;;;;;;5072632;28;20475;-62
2023/09/18 13:54:40;;;;;;;5.10;4.60;;;;;;;;;;5072637;28;20447;-62
2023/09/18 13:57:07;;;;;;;4.53;4.23;;;;;;;;;;5072574;28;20443;-62
2023/09/18 13:59:34;;;;;;;3.83;3.43;;;;;;;;;;5072377;28;20499;-62
2023/09/18 14:02:03;;;;;;;3.93;3.63;;;;;;;;;;5072434;28;20455;-62
2023/09/18 14:04:30;;;;;;;4.57;4.17;;;;;;;;;;5072305;28;21000;-62
2023/09/18 14:06:58;;;;;;;5.53;4.10;;;;;;;;;;5072590;28;20443;-62
2023/09/18 14:09:25;;;;;;;4.20;4.00;;;;;;;;;;5072494;28;20909;-62
2023/09/18 14:11:52;;;;;;;5.13;4.50;;;;;;;;;;5072405;28;20562;-62
2023/09/18 14:14:19;;;;;;;8.60;4.90;;;;;;;;;;5072266;28;20863;-62
2023/09/18 14:16:46;;;;;;;4.90;4.50;;;;;;;;;;5073111;28;20449;-62
2023/09/18 14:19:14;;;;;;;4.60;4.20;;;;;;;;;;5076223;28;20539;-62
2023/09/18 14:21:41;;;;;;;5.40;4.90;;;;;;;;;;5076136;28;20837;-62
2023/09/18 14:24:08;;;;;;;4.63;4.33;;;;;;;;;;5076089;28;20440;-62
2023/09/18 14:26:40;;;;;;;6.30;4.20;;;;;;;;;;5075696;28;20950;-62
2023/09/18 14:29:07;;;;;;;4.60;3.70;;;;;;;;;;5076101;28;20450;-62
2023/09/18 14:31:34;;;;;;;5.97;4.07;;;;;;;;;;5076020;28;20481;-62
2023/09/18 14:34:01;;;;;;;4.50;4.10;;;;;;;;;;5075958;28;21302;-62
2023/09/18 14:36:30;;;;;;;4.27;3.87;;;;;;;;;;5075806;28;20450;-62
2023/09/18 14:38:57;;;;;;;3.63;3.43;;;;;;;;;;5075677;28;20517;-62
2023/09/18 14:41:26;;;;;;;5.80;4.00;;;;;;;;;;5075750;28;20454;-62
2023/09/18 14:43:53;;;;;;;3.90;3.60;;;;;;;;;;5075579;28;20482;-62
2023/09/18 14:46:20;;;;;;;4.60;3.60;;;;;;;;;;5075829;28;20443;-62